K9JWM Weather Reports


Display with metric or nautical units.
time (UTC)temp
F
wind
direction
speed
MPH
gust
MPH
rain 1hr
in
rain 24hr
in
rain mn
in
humidity
%
barometer
mb
20221203181948 6 257 9.0 10.0 0.00 0.00 0.00 71 1027.9
20221203180448 5 247 7.0 8.0 0.00 0.00 0.00 73 1027.8
20221203174946 5 234 12.0 13.0 0.00 0.00 0.00 73 1028.0
20221203173446 5 240 13.0 16.0 0.00 0.00 0.00 73 1028.3
20221203171946 4 233 10.0 13.0 0.00 0.00 0.00 73 1027.8
20221203170448 4 253 10.0 13.0 0.00 0.00 0.00 75 1028.0
20221203164948 3 255 7.0 8.0 0.00 0.00 0.00 76 1027.8
20221203163448 2 250 9.0 10.0 0.00 0.00 0.00 76 1027.9
20221203161947 2 246 8.0 10.0 0.00 0.00 0.00 77 1027.8
20221203160447 1 243 7.0 9.0 0.00 0.00 0.00 79 1027.8
20221203154946 0 259 7.0 9.0 0.00 0.00 0.00 79 1027.5
20221203153447 -1 263 8.0 13.0 0.00 0.00 0.00 80 1027.2
20221203151946 -1 264 8.0 12.0 0.00 0.00 0.00 80 1026.7
20221203150447 -1 247 9.0 12.0 0.00 0.00 0.00 81 1026.6
20221203144947 -1 251 8.0 10.0 0.00 0.00 0.00 82 1026.6
20221203143448 -1 273 8.0 15.0 0.00 0.00 0.00 82 1026.3
20221203141948 -1 266 7.0 12.0 0.00 0.00 0.00 82 1026.2
20221203140448 -1 258 7.0 12.0 0.00 0.00 0.00 82 1025.7
20221203134947 0 258 8.0 10.0 0.00 0.00 0.00 82 1025.4
20221203133447 0 257 12.0 16.0 0.00 0.00 0.00 82 1025.0
20221203131946 1 270 8.0 10.0 0.00 0.00 0.00 82 1024.6
20221203130447 1 264 9.0 13.0 0.00 0.00 0.00 82 1023.8
20221203124947 2 259 9.0 12.0 0.00 0.00 0.00 82 1023.4
20221203123447 2 266 8.0 12.0 0.00 0.00 0.00 82 1023.3
20221203121948 3 263 5.0 7.0 0.00 0.00 0.00 82 1023.0
20221203120447 3 265 10.0 13.0 0.00 0.00 0.00 82 1022.7
20221203114947 4 256 3.0 7.0 0.00 0.00 0.00 82 1022.4
20221203113447 4 263 10.0 12.0 0.00 0.00 0.00 81 1022.0
20221203111946 5 269 9.0 20.0 0.00 0.00 0.00 81 1021.6
20221203110447 5 272 9.0 17.0 0.00 0.00 0.00 81 1021.1
20221203104947 6 281 10.0 13.0 0.00 0.00 0.00 81 1020.5
20221203103448 6 267 10.0 14.0 0.00 0.00 0.00 82 1020.1
20221203101947 7 265 7.0 12.0 0.00 0.00 0.00 82 1019.4
20221203100446 7 270 12.0 14.0 0.00 0.00 0.00 82 1019.2
20221203094947 8 258 9.0 13.0 0.00 0.00 0.00 82 1018.7
20221203093447 8 266 7.0 12.0 0.00 0.00 0.00 82 1018.1
20221203091947 9 256 9.0 9.0 0.00 0.00 0.00 82 1017.7
20221203090448 10 282 8.0 12.0 0.00 0.00 0.00 82 1017.2
20221203084948 10 265 15.0 20.0 0.00 0.00 0.00 81 1016.7
20221203083447 11 276 8.0 17.0 0.00 0.00 0.00 82 1016.4
20221203081947 12 259 13.0 17.0 0.00 0.00 0.00 82 1015.6
20221203080446 13 276 10.0 17.0 0.00 0.00 0.00 83 1014.7
20221203074947 14 273 8.0 18.0 0.00 0.00 0.00 84 1013.9
20221203073447 15 266 6.0 12.0 0.00 0.00 0.00 84 1013.4
20221203071946 15 264 9.0 12.0 0.00 0.00 0.00 86 1012.9
20221203070446 16 264 9.0 18.0 0.00 0.00 0.00 86 1012.0
20221203064946 16 276 9.0 10.0 0.00 0.00 0.00 86 1011.4
20221203063447 18 257 9.0 15.0 0.00 0.00 0.00 86 1010.9
20221203061948 18 283 6.0 16.0 0.00 0.00 0.00 85 1010.3
20221203060447 19 286 9.0 13.0 0.00 0.00 0.00 86 1010.0
20221203054947 20 292 9.0 13.0 0.00 0.00 0.00 86 1009.6
20221203053447 21 280 12.0 16.0 0.00 0.00 0.00 86 1009.1
20221203051946 23 259 7.0 8.0 0.00 0.00 0.00 84 1008.4
20221203050448 23 300 6.0 10.0 0.00 0.00 0.00 82 1008.1
20221203044948 24 262 7.0 20.0 0.00 0.00 0.00 80 1007.7
20221203043447 25 307 8.0 16.0 0.00 0.00 0.00 81 1007.1
20221203041947 26 253 5.0 8.0 0.00 0.00 0.00 82 1006.3
20221203040447 27 286 9.0 20.0 0.00 0.00 0.00 83 1006.6
20221203034947 27 268 13.0 18.0 0.00 0.00 0.00 83 1005.7
20221203033447 27 275 7.0 20.0 0.00 0.00 0.00 85 1004.6
20221203031947 28 268 8.0 14.0 0.00 0.00 0.00 87 1004.1
20221203030448 30 299 7.0 12.0 0.00 0.00 0.00 88 1003.6
20221203024947 30 289 8.0 15.0 0.00 0.00 0.00 89 1003.5
20221203023447 31 269 8.0 21.0 0.00 0.00 0.00 91 1003.2
20221203021947 31 265 7.0 10.0 0.00 0.00 0.00 92 1003.0
20221203020446 31 258 10.0 13.0 0.00 0.00 0.00 92 1002.4
20221203014948 31 258 7.0 7.0 0.00 0.00 0.00 92 1002.3
20221203013447 31 255 7.0 10.0 0.00 0.00 0.00 92 1002.2
20221203011947 31 258 6.0 6.0 0.00 0.00 0.00 91 1001.9
20221203010447 32 266 8.0 14.0 0.00 0.00 0.00 88 1002.0
20221203004946 33 257 9.0 12.0 0.00 0.00 0.00 84 1002.1
20221203003449 33 258 8.0 9.0 0.00 0.00 0.00 81 1001.8
20221203001946 34 248 12.0 13.0 0.00 0.00 0.00 78 1001.7
20221203000447 34 238 7.0 12.0 0.00 0.00 0.00 76 1001.8
20221202234947 34 240 8.0 12.0 0.00 0.00 0.00 76 1001.8
20221202233447 34 242 7.0 8.0 0.00 0.00 0.00 76 1001.7
20221202231947 33 239 7.0 8.0 0.00 0.00 0.00 76 1001.5
20221202230446 33 231 5.0 6.0 0.00 0.00 0.00 74 1001.3
20221202224946 33 223 5.0 6.0 0.00 0.00 0.00 74 1001.1
20221202223446 33 225 2.0 3.0 0.00 0.00 0.00 74 1000.8
20221202221946 34 219 1.0 2.0 0.00 0.00 0.00 71 1000.4
20221202220446 34 230 6.0 7.0 0.00 0.00 0.00 71 1001.2
20221202214946 34 221 5.0 6.0 0.00 0.00 0.00 70 1001.2
20221202213448 34 226 7.0 8.0 0.00 0.00 0.00 70 1001.1
20221202211946 35 236 8.0 10.0 0.00 0.00 0.00 69 1001.3
20221202210447 35 228 12.0 12.0 0.00 0.00 0.00 69 1000.7
20221202204946 35 210 6.0 9.0 0.00 0.00 0.00 69 1000.4
20221202203447 35 215 8.0 12.0 0.00 0.00 0.00 68 1000.1
20221202201947 35 223 9.0 15.0 0.00 0.00 0.00 67 1000.1
20221202200446 35 206 7.0 12.0 0.00 0.00 0.00 67 1000.0
20221202194946 35 196 7.0 15.0 0.00 0.00 0.00 66 1000.2
20221202193447 35 228 8.0 13.0 0.00 0.00 0.00 66 1000.4
20221202191946 35 222 7.0 12.0 0.00 0.00 0.00 65 1001.3
20221202190448 35 214 9.0 14.0 0.00 0.00 0.00 65 1001.4
20221202184946 35 218 12.0 20.0 0.00 0.00 0.00 65 1001.3
20221202183447 35 230 12.0 12.0 0.00 0.00 0.00 65 1001.3